Eddyville, Kentucky
Current Conditions -  °F | °C
As of 5:15 AM on Saturday 25 Oct 2014 (Local Time) from K5M9 Reporting Station
Overcast Overcast  
Wind Chill: 55°   Ceiling: 4800
Heat Index: 55°   Visibility: 7mi
Dew Point: 53°   Wind: 3mph
Humidity: 94%   Direction: 200°SSW
Pressure: 30.04"   Gusts: NA
Location:  37.09°N, 88.08°W
Report Text: K5M9 251015Z AUTO 20003KT 7SM OVC048 13/12 A3004 RMK AO2 T01250116
Loading
Personal Weather Stations






























Interactive Weather Map
Tropical Storm Tracking
New forecast layout! Learn more

10-Day Weather Forecast

Advertisements
Track Severe Weather on mobile